Underkhaan, Mongolia
Current Conditions -  °F | °C
As of 5:00 AM on Sunday 26 Oct 2014 (Local Time) from ZMUB Reporting Station
Clear Clear  
Wind Chill: -4°   Ceiling: Unl
Heat Index:   Visibility: 6mi
Dew Point:   Wind: 4mph
Humidity: 78%   Direction: 200°SSW
Pressure: 30.39"   Gusts: NA
Location:  47.32°N, 110.63°E
Report Text: ZMUB 252100Z 20002MPS CAVOK M15/M18 Q1029 NOSIG RMK QFE663.3 74
Loading
Personal Weather Stations






























Interactive Weather Map
Tropical Storm Tracking
New forecast layout! Learn more

10-Day Weather Forecast

Advertisements
Track Severe Weather on mobile